Terminal Aerodrome Forecast
Issued by NWS Charleston, WV

Current Version | Previous Version | Graphics & Text | Print | Product List | Glossary On
Versions: 1 2 3 4 5 6 7 8 9 10 11 12 13 14 15 16 17 18 19 20 21 22 23 24 25 26 27
000
FTUS41 KRLX 030216 AAA
TAFBKW
TAF AMD
KBKW 030216Z 0302/0324 12003KT 5SM BR VCSH BKN008 OVC015
     FM030500 12002KT 4SM BR VCSH OVC004
     FM030700 00000KT 2SM BR OVC003
     FM031400 13003KT 4SM SHRA BR VCTS OVC008CB
     FM031800 15005KT 2SM SHRA BR VCTS OVC006CB=

USA.gov is the U.S. government's official web portal to all federal, state and local government web resources and services.